createdAt,value
2022-11-24T00:14:44.011Z,186.6
2022-11-24T00:30:26.203Z,207.8
2022-11-24T00:46:08.519Z,185
2022-11-24T01:01:51.257Z,189.6
2022-11-24T01:17:34.000Z,238.1
2022-11-24T01:33:16.453Z,216.6
2022-11-24T01:48:59.282Z,207.7
2022-11-24T02:04:42.161Z,252.7
2022-11-24T02:20:24.861Z,200
2022-11-24T02:36:07.358Z,198.1
2022-11-24T02:51:50.207Z,200.2
2022-11-24T03:07:32.721Z,186.1
2022-11-24T03:23:14.903Z,177.1
2022-11-24T03:38:57.743Z,203.4
2022-11-24T03:54:40.592Z,187.4
2022-11-24T04:10:23.212Z,182.8
2022-11-24T04:26:06.223Z,179.8
2022-11-24T04:41:48.920Z,176.7
2022-11-24T04:57:31.373Z,205.2
2022-11-24T05:13:14.196Z,188
2022-11-24T05:28:57.162Z,139.5
2022-11-24T05:44:39.792Z,158.8
2022-11-24T06:00:21.937Z,129.8
2022-11-24T06:16:04.186Z,127.5
2022-11-24T06:31:46.789Z,117.1
2022-11-24T06:47:28.999Z,108.5
2022-11-24T07:03:11.744Z,110.9
2022-11-24T07:18:54.942Z,103.6
2022-11-24T07:34:37.967Z,100.1
2022-11-24T07:50:20.761Z,112.5
2022-11-24T08:06:03.334Z,113.7
2022-11-24T08:21:45.788Z,100.9
2022-11-24T08:37:28.216Z,91.1
2022-11-24T08:53:11.366Z,71.19
2022-11-24T09:08:54.048Z,72.1
2022-11-24T09:24:36.727Z,79.3
2022-11-24T09:40:19.049Z,63
2022-11-24T09:56:01.849Z,50.2
2022-11-24T10:11:44.483Z,44.4
2022-11-24T10:27:26.724Z,41
2022-11-24T10:43:09.166Z,33.7
2022-11-24T10:58:52.072Z,31.9
2022-11-24T11:14:34.893Z,28.9
2022-11-24T11:30:17.405Z,30.8
2022-11-24T11:46:00.362Z,32.59
2022-11-24T12:01:42.973Z,31.9
2022-11-24T12:17:25.657Z,34.8
2022-11-24T12:33:08.362Z,33.8
2022-11-24T12:48:51.343Z,30.1
2022-11-24T13:04:33.457Z,30.9
2022-11-24T13:20:15.906Z,37
2022-11-24T13:35:58.822Z,37.4
2022-11-24T13:51:41.171Z,37.5
2022-11-24T14:07:23.232Z,42.9
2022-11-24T14:23:06.204Z,46.7
2022-11-24T14:38:48.905Z,43.9
2022-11-24T14:54:31.130Z,49.1
2022-11-24T15:10:13.681Z,53.4
2022-11-24T15:25:56.180Z,53.9
2022-11-24T15:41:38.173Z,53.6
2022-11-24T15:57:20.606Z,60.8
2022-11-24T16:13:02.961Z,63.6
2022-11-24T16:28:45.235Z,70.8
2022-11-24T16:29:32.613Z,68
2022-11-24T16:45:15.718Z,69.3
2022-11-24T17:00:58.596Z,69.3
2022-11-24T17:16:41.666Z,66.3
2022-11-24T17:32:24.173Z,78.6
2022-11-24T17:48:06.649Z,83.1
2022-11-24T18:03:49.648Z,86.5
2022-11-24T18:19:32.148Z,108.4
2022-11-24T18:35:14.240Z,103
2022-11-24T18:50:57.375Z,106.5
2022-11-24T19:06:40.267Z,94.9
2022-11-24T19:22:23.223Z,100.3
2022-11-24T19:38:05.710Z,92.2
2022-11-24T19:53:48.811Z,77.69
2022-11-24T20:09:31.720Z,108.1
2022-11-24T20:25:14.459Z,104.4
2022-11-24T20:40:56.931Z,172.6
2022-11-24T20:56:39.509Z,68.6
2022-11-24T21:12:22.302Z,70.9
2022-11-24T21:28:04.944Z,74.4
2022-11-24T21:43:47.835Z,87.1
2022-11-24T21:59:30.414Z,76.9
2022-11-24T22:15:12.681Z,82.8
2022-11-24T22:30:55.289Z,89.7
2022-11-24T22:46:37.640Z,107.1
2022-11-24T23:02:20.512Z,110.1
2022-11-24T23:18:03.028Z,110.9
2022-11-24T23:33:45.414Z,103.8
2022-11-24T23:49:27.664Z,86.6
